createdAt,value
2023-04-16T00:01:07.345Z,57.76
2023-04-16T00:03:34.189Z,57.83
2023-04-16T00:06:01.382Z,58.05
2023-04-16T00:08:28.048Z,57.97
2023-04-16T00:10:54.783Z,58.02
2023-04-16T00:13:21.360Z,57.88
2023-04-16T00:15:48.251Z,57.96
2023-04-16T00:18:14.830Z,57.98
2023-04-16T00:20:41.373Z,57.87
2023-04-16T00:23:07.969Z,57.85
2023-04-16T00:25:34.750Z,57.85
2023-04-16T00:28:01.399Z,58.03
2023-04-16T00:30:27.898Z,57.84
2023-04-16T00:32:54.682Z,58.00
2023-04-16T00:35:21.500Z,58.11
2023-04-16T00:37:48.174Z,57.84
2023-04-16T00:40:14.831Z,58.00
2023-04-16T00:42:41.517Z,57.92
2023-04-16T00:45:08.536Z,57.85
2023-04-16T00:47:35.407Z,57.93
2023-04-16T00:50:03.329Z,58.08
2023-04-16T00:52:31.520Z,58.13
2023-04-16T00:54:58.731Z,58.06
2023-04-16T00:57:25.299Z,58.07
2023-04-16T00:59:51.880Z,57.90
2023-04-16T01:02:18.510Z,58.04
2023-04-16T01:04:45.242Z,58.06
2023-04-16T01:07:12.189Z,58.06
2023-04-16T01:09:38.754Z,57.99
2023-04-16T01:12:05.508Z,57.93
2023-04-16T01:14:36.411Z,58.06
2023-04-16T01:17:04.033Z,58.20
2023-04-16T01:19:36.431Z,58.03
2023-04-16T01:22:03.663Z,58.37
2023-04-16T01:24:30.473Z,58.16
2023-04-16T01:27:00.682Z,58.19
2023-04-16T01:29:27.788Z,58.25
2023-04-16T01:31:56.637Z,58.34
2023-04-16T01:34:26.881Z,58.25
2023-04-16T01:36:53.516Z,58.34
2023-04-16T01:39:20.395Z,58.17
2023-04-16T01:41:47.748Z,58.41
2023-04-16T01:44:14.487Z,58.33
2023-04-16T01:46:43.049Z,58.32
2023-04-16T01:49:10.311Z,58.29
2023-04-16T01:51:37.574Z,58.38
2023-04-16T01:54:04.303Z,58.17
2023-04-16T01:56:30.874Z,58.38
2023-04-16T01:58:57.484Z,58.10
2023-04-16T02:01:26.941Z,58.18
2023-04-16T02:03:53.793Z,58.24
2023-04-16T02:06:20.824Z,58.20
2023-04-16T02:08:47.758Z,58.05
2023-04-16T02:11:14.608Z,58.12
2023-04-16T02:13:41.897Z,58.14
2023-04-16T02:16:09.162Z,58.17
2023-04-16T02:19:11.387Z,58.43
2023-04-16T02:21:39.750Z,58.54
2023-04-16T02:24:06.919Z,58.51
2023-04-16T02:26:34.302Z,58.44
2023-04-16T02:29:05.831Z,58.63
2023-04-16T02:31:41.276Z,58.45
2023-04-16T02:34:09.350Z,58.94
2023-04-16T02:36:35.969Z,58.67
2023-04-16T02:39:02.751Z,58.62
2023-04-16T02:41:29.407Z,58.61
2023-04-16T02:43:56.437Z,58.63
2023-04-16T02:46:23.163Z,58.53
2023-04-16T02:48:49.864Z,58.45
2023-04-16T02:51:16.429Z,58.54
2023-04-16T02:53:46.090Z,58.32
2023-04-16T02:56:13.463Z,58.42
2023-04-16T02:58:40.150Z,58.40
2023-04-16T03:01:06.869Z,58.34
2023-04-16T03:03:33.956Z,58.38
2023-04-16T03:06:00.656Z,58.26
2023-04-16T03:08:27.565Z,58.12
2023-04-16T03:10:54.211Z,58.34
2023-04-16T03:13:21.099Z,58.14
2023-04-16T03:15:50.787Z,58.30
2023-04-16T03:18:17.631Z,58.27
2023-04-16T03:20:44.246Z,58.19
2023-04-16T03:23:11.571Z,58.16
2023-04-16T03:25:40.553Z,58.21
2023-04-16T03:28:08.760Z,58.32
2023-04-16T03:30:35.492Z,58.29
2023-04-16T03:33:03.678Z,58.10
2023-04-16T03:35:30.426Z,58.14
2023-04-16T03:37:57.096Z,58.31
2023-04-16T03:40:24.131Z,58.11
2023-04-16T03:42:52.203Z,58.14
2023-04-16T03:45:18.760Z,58.09
2023-04-16T03:47:52.415Z,58.08
2023-04-16T03:50:21.824Z,58.12
2023-04-16T03:52:49.495Z,58.12
2023-04-16T03:55:17.532Z,58.16
2023-04-16T03:57:44.880Z,58.13
2023-04-16T04:00:14.237Z,58.10
2023-04-16T04:02:41.039Z,58.12
2023-04-16T04:05:13.906Z,58.23
2023-04-16T04:07:41.288Z,58.24
2023-04-16T04:10:08.447Z,58.04
2023-04-16T04:12:38.181Z,58.10
2023-04-16T04:15:05.317Z,58.33
2023-04-16T04:17:31.984Z,58.24
2023-04-16T04:20:01.347Z,58.12
2023-04-16T04:22:30.846Z,58.20
2023-04-16T04:24:57.409Z,58.11
2023-04-16T04:27:27.323Z,58.03
2023-04-16T04:29:54.102Z,58.21
2023-04-16T04:32:22.058Z,58.05
2023-04-16T04:34:49.204Z,58.07
2023-04-16T04:37:15.950Z,58.09
2023-04-16T04:39:43.422Z,58.05
2023-04-16T04:42:12.323Z,58.07
2023-04-16T04:44:39.179Z,58.13
2023-04-16T04:47:07.798Z,58.07
2023-04-16T04:49:35.936Z,58.20
2023-04-16T04:52:02.857Z,58.14
2023-04-16T04:54:31.530Z,58.00
2023-04-16T04:56:58.206Z,58.03
2023-04-16T04:59:25.290Z,58.08
2023-04-16T05:01:52.568Z,58.23
2023-04-16T05:04:19.601Z,58.23
2023-04-16T05:06:46.434Z,58.21
2023-04-16T05:09:13.177Z,58.10
2023-04-16T05:11:40.731Z,58.12
2023-04-16T05:14:07.420Z,58.12
2023-04-16T05:16:37.785Z,58.25
2023-04-16T05:19:04.728Z,57.86
2023-04-16T05:21:31.412Z,58.14
2023-04-16T05:23:58.528Z,58.06
2023-04-16T05:26:25.161Z,58.12
2023-04-16T05:28:51.770Z,58.06
2023-04-16T05:31:18.473Z,58.15
2023-04-16T05:33:45.366Z,57.97
2023-04-16T05:36:12.077Z,58.16
2023-04-16T05:38:38.754Z,58.13
2023-04-16T05:41:05.753Z,58.21
2023-04-16T05:43:32.319Z,58.06
2023-04-16T05:45:58.857Z,58.36
2023-04-16T05:48:25.474Z,58.18
2023-04-16T05:50:52.025Z,58.17
2023-04-16T05:53:19.088Z,58.10
2023-04-16T05:55:46.778Z,58.06
2023-04-16T05:58:13.403Z,58.07
2023-04-16T06:00:40.461Z,58.14
2023-04-16T06:03:07.324Z,58.26
2023-04-16T06:05:34.101Z,58.10
2023-04-16T06:08:00.757Z,58.20
2023-04-16T06:10:27.349Z,58.11
2023-04-16T06:12:54.052Z,58.27
2023-04-16T06:15:20.754Z,58.20
2023-04-16T06:17:47.313Z,58.24
2023-04-16T06:20:13.952Z,58.16
2023-04-16T06:22:40.790Z,58.11
2023-04-16T06:25:07.535Z,58.22
2023-04-16T06:27:34.148Z,58.23
2023-04-16T06:30:00.913Z,58.13
2023-04-16T06:32:27.575Z,58.19
2023-04-16T06:34:54.312Z,58.15
2023-04-16T06:37:21.013Z,58.25
2023-04-16T06:39:47.625Z,58.09
2023-04-16T06:42:14.102Z,58.22
2023-04-16T06:44:40.824Z,58.20
2023-04-16T06:47:07.894Z,58.18
2023-04-16T06:49:34.539Z,58.13
2023-04-16T06:52:01.754Z,58.28
2023-04-16T06:54:28.939Z,58.32
2023-04-16T06:56:55.524Z,58.25
2023-04-16T06:59:22.086Z,58.09
2023-04-16T07:01:48.693Z,58.22
2023-04-16T07:04:15.375Z,58.22
2023-04-16T07:06:41.960Z,58.32
2023-04-16T07:09:08.725Z,58.37
2023-04-16T07:11:35.687Z,58.17
2023-04-16T07:14:02.479Z,58.16
2023-04-16T07:16:29.099Z,58.20
2023-04-16T07:18:55.798Z,58.18
2023-04-16T07:21:22.739Z,58.25
2023-04-16T07:23:49.505Z,58.18
2023-04-16T07:26:16.292Z,58.23
2023-04-16T07:28:42.772Z,58.30
2023-04-16T07:31:09.404Z,58.19
2023-04-16T07:33:36.087Z,58.18
2023-04-16T07:36:02.708Z,58.26
2023-04-16T07:38:29.188Z,58.22
2023-04-16T07:40:56.498Z,58.27
2023-04-16T07:43:23.207Z,58.39
2023-04-16T07:45:49.843Z,58.27
2023-04-16T07:48:16.507Z,58.21
2023-04-16T07:50:46.124Z,58.18
2023-04-16T07:53:12.761Z,58.21
2023-04-16T07:55:39.336Z,58.34
2023-04-16T07:58:07.759Z,58.40
2023-04-16T08:00:34.373Z,58.32
2023-04-16T08:03:01.289Z,58.06
2023-04-16T08:05:28.046Z,58.20
2023-04-16T08:07:54.629Z,58.21
2023-04-16T08:10:21.233Z,58.31
2023-04-16T08:12:47.901Z,58.35
2023-04-16T08:15:14.554Z,58.28
2023-04-16T08:17:41.283Z,58.35
2023-04-16T08:20:08.234Z,58.18
2023-04-16T08:22:34.912Z,58.38
2023-04-16T08:25:01.788Z,58.35
2023-04-16T08:27:28.395Z,58.44
2023-04-16T08:29:54.985Z,58.38
2023-04-16T08:32:21.632Z,58.44
2023-04-16T08:34:48.189Z,58.31
2023-04-16T08:37:14.809Z,58.38
2023-04-16T08:39:41.828Z,58.41
2023-04-16T08:42:12.945Z,58.53
2023-04-16T08:44:43.800Z,58.26
2023-04-16T08:47:12.601Z,58.29
2023-04-16T08:49:43.831Z,58.22
2023-04-16T08:52:14.796Z,58.33
2023-04-16T08:54:56.909Z,58.44
2023-04-16T08:57:26.666Z,58.29
2023-04-16T08:59:54.703Z,58.36
2023-04-16T09:02:24.258Z,58.42
2023-04-16T09:04:51.391Z,58.37
2023-04-16T09:07:19.740Z,58.21
2023-04-16T09:09:48.913Z,58.49
2023-04-16T09:12:15.520Z,58.32
2023-04-16T09:14:45.101Z,58.25
2023-04-16T09:17:12.409Z,58.30
2023-04-16T09:19:38.967Z,58.33
2023-04-16T09:22:05.579Z,58.42
2023-04-16T09:24:32.502Z,58.46
2023-04-16T09:26:59.996Z,58.26
2023-04-16T09:29:42.002Z,58.39
2023-04-16T09:32:09.691Z,58.53
2023-04-16T09:34:54.156Z,58.41
2023-04-16T09:37:21.116Z,58.36
2023-04-16T09:40:01.039Z,58.35
2023-04-16T09:42:28.779Z,58.47
2023-04-16T09:44:57.842Z,58.40
2023-04-16T09:47:27.368Z,58.45
2023-04-16T09:49:58.890Z,58.43
2023-04-16T09:52:25.904Z,58.41
2023-04-16T09:54:53.545Z,58.53
2023-04-16T09:57:21.266Z,58.52
2023-04-16T09:59:48.794Z,58.50
2023-04-16T10:02:16.598Z,58.43
2023-04-16T10:04:50.645Z,58.44
2023-04-16T10:07:17.562Z,58.53
2023-04-16T10:09:44.294Z,58.55
2023-04-16T10:12:12.840Z,58.60
2023-04-16T10:14:40.091Z,58.49
2023-04-16T10:17:07.070Z,58.51
2023-04-16T10:19:33.798Z,58.45
2023-04-16T10:22:00.632Z,58.66
2023-04-16T10:24:28.149Z,58.48
2023-04-16T10:26:55.452Z,58.59
2023-04-16T10:29:22.650Z,58.62
2023-04-16T10:31:49.924Z,58.61
2023-04-16T10:34:16.915Z,58.59
2023-04-16T10:36:43.591Z,58.48
2023-04-16T10:39:12.964Z,58.59
2023-04-16T10:41:42.573Z,58.66
2023-04-16T10:44:10.081Z,58.55
2023-04-16T10:46:37.842Z,58.56
2023-04-16T10:49:15.400Z,58.64
2023-04-16T10:51:42.272Z,58.65
2023-04-16T10:54:09.080Z,58.68
2023-04-16T10:56:39.716Z,58.56
2023-04-16T10:59:10.629Z,58.70
2023-04-16T11:01:41.375Z,58.77
2023-04-16T11:04:20.742Z,58.82
2023-04-16T11:07:06.271Z,58.68
2023-04-16T11:09:51.655Z,58.60
2023-04-16T11:12:19.333Z,58.73
2023-04-16T11:14:50.090Z,58.83
2023-04-16T11:17:17.193Z,58.70
2023-04-16T11:19:44.115Z,58.73
2023-04-16T11:22:15.044Z,58.69
2023-04-16T11:24:41.793Z,58.77
2023-04-16T11:27:08.568Z,58.67
2023-04-16T11:29:35.366Z,58.66
2023-04-16T11:32:02.030Z,58.62
2023-04-16T11:34:28.689Z,58.79
2023-04-16T11:36:55.349Z,58.71
2023-04-16T11:39:22.972Z,58.74
2023-04-16T11:41:50.521Z,58.70
2023-04-16T11:44:21.415Z,58.74
2023-04-16T11:46:48.207Z,58.75
2023-04-16T11:49:15.623Z,58.76
2023-04-16T11:51:43.119Z,58.70
2023-04-16T11:54:12.045Z,58.84
2023-04-16T11:56:38.934Z,58.90
2023-04-16T11:59:09.133Z,58.87
2023-04-16T12:01:37.034Z,58.82
2023-04-16T12:04:04.056Z,58.86
2023-04-16T12:06:32.416Z,58.85
2023-04-16T12:08:59.614Z,58.74
2023-04-16T12:11:41.838Z,58.89
2023-04-16T12:14:09.594Z,58.86
2023-04-16T12:16:36.323Z,58.81
2023-04-16T12:19:04.212Z,58.96
2023-04-16T12:21:46.821Z,58.78
2023-04-16T12:24:14.884Z,58.78
2023-04-16T12:26:42.952Z,58.77
2023-04-16T12:29:16.147Z,58.78
2023-04-16T12:31:42.871Z,58.91
2023-04-16T12:34:10.441Z,58.76
2023-04-16T12:36:37.658Z,58.88
2023-04-16T12:39:05.098Z,58.87
2023-04-16T12:41:32.005Z,58.85
2023-04-16T12:44:09.206Z,58.89
2023-04-16T12:46:37.484Z,58.86
2023-04-16T12:49:04.234Z,58.95
2023-04-16T12:51:31.326Z,58.84
2023-04-16T12:53:57.972Z,58.88
2023-04-16T12:56:24.647Z,58.91
2023-04-16T12:58:51.990Z,58.87
2023-04-16T13:01:19.711Z,58.93
2023-04-16T13:03:46.672Z,58.96
2023-04-16T13:06:14.585Z,58.75
2023-04-16T13:08:41.585Z,58.90
2023-04-16T13:11:08.647Z,58.65
2023-04-16T13:13:35.444Z,58.82
2023-04-16T13:16:04.193Z,58.87
2023-04-16T13:18:30.875Z,58.92
2023-04-16T13:20:57.964Z,58.82
2023-04-16T13:23:24.581Z,58.83
2023-04-16T13:25:51.181Z,58.89
2023-04-16T13:28:17.667Z,58.83
2023-04-16T13:30:44.321Z,58.85
2023-04-16T13:33:11.034Z,58.91
2023-04-16T13:35:37.563Z,58.84
2023-04-16T13:38:04.613Z,58.91
2023-04-16T13:40:31.435Z,58.87
2023-04-16T13:42:58.147Z,58.86
2023-04-16T13:45:24.800Z,58.86
2023-04-16T13:47:51.589Z,58.68
2023-04-16T13:50:18.366Z,58.86
2023-04-16T13:52:44.917Z,58.81
2023-04-16T13:55:14.062Z,58.84
2023-04-16T13:57:41.320Z,58.81
2023-04-16T14:00:08.267Z,58.80
2023-04-16T14:02:35.089Z,58.80
2023-04-16T14:05:01.734Z,58.81
2023-04-16T14:07:29.189Z,58.67
2023-04-16T14:09:55.933Z,58.79
2023-04-16T14:12:22.593Z,58.80
2023-04-16T14:14:49.286Z,58.66
2023-04-16T14:17:16.013Z,58.74
2023-04-16T14:19:42.605Z,58.73
2023-04-16T14:22:09.481Z,58.63
2023-04-16T14:24:36.393Z,58.73
2023-04-16T14:27:04.322Z,58.73
2023-04-16T14:29:30.994Z,58.75
2023-04-16T14:31:57.666Z,58.75
2023-04-16T14:34:24.293Z,58.68
2023-04-16T14:36:51.948Z,58.91
2023-04-16T14:39:18.583Z,58.79
2023-04-16T14:41:45.279Z,58.75
2023-04-16T14:44:11.845Z,58.68
2023-04-16T14:46:38.701Z,58.62
2023-04-16T14:49:05.657Z,58.67
2023-04-16T14:51:32.545Z,58.75
2023-04-16T14:53:59.168Z,58.70
2023-04-16T14:56:25.953Z,58.68
2023-04-16T14:58:52.451Z,58.74
2023-04-16T15:01:19.095Z,58.79
2023-04-16T15:03:46.037Z,58.80
2023-04-16T15:06:13.852Z,58.73
2023-04-16T15:08:40.426Z,58.75
2023-04-16T15:11:06.937Z,58.70
2023-04-16T15:13:36.114Z,58.76
2023-04-16T15:16:04.518Z,58.68
2023-04-16T15:18:31.536Z,58.62
2023-04-16T15:20:58.349Z,58.66
2023-04-16T15:23:25.065Z,58.67
2023-04-16T15:25:51.738Z,58.72
2023-04-16T15:28:18.416Z,58.67
2023-04-16T15:30:45.041Z,58.61
2023-04-16T15:33:12.038Z,58.68
2023-04-16T15:35:41.218Z,58.61
2023-04-16T15:38:08.505Z,58.63
2023-04-16T15:40:35.679Z,58.78
2023-04-16T15:43:02.731Z,58.62
2023-04-16T15:45:29.227Z,58.65
2023-04-16T15:47:55.974Z,58.57
2023-04-16T15:50:22.777Z,58.57
2023-04-16T15:52:49.536Z,58.57
2023-04-16T15:55:16.820Z,58.58
2023-04-16T15:57:43.429Z,58.56
2023-04-16T16:00:17.250Z,58.55
2023-04-16T16:02:45.072Z,58.62
2023-04-16T16:05:12.940Z,58.68
2023-04-16T16:07:40.188Z,58.63
2023-04-16T16:10:07.327Z,58.54
2023-04-16T16:12:34.197Z,58.56
2023-04-16T16:15:02.178Z,58.71
2023-04-16T16:17:29.640Z,58.61
2023-04-16T16:19:57.672Z,58.70
2023-04-16T16:22:24.553Z,58.69
2023-04-16T16:24:51.404Z,58.50
2023-04-16T16:27:18.571Z,58.75
2023-04-16T16:29:45.436Z,58.62
2023-04-16T16:32:12.000Z,58.58
2023-04-16T16:34:38.787Z,58.59
2023-04-16T16:37:05.655Z,58.74
2023-04-16T16:39:32.717Z,58.77
2023-04-16T16:41:59.389Z,58.66
2023-04-16T16:44:27.133Z,58.68
2023-04-16T16:46:54.073Z,58.70
2023-04-16T16:49:20.732Z,58.73
2023-04-16T16:51:47.900Z,58.79
2023-04-16T16:54:14.508Z,58.80
2023-04-16T16:56:41.349Z,58.86
2023-04-16T16:59:09.077Z,58.70
2023-04-16T17:01:35.962Z,58.81
2023-04-16T17:04:02.666Z,58.71
2023-04-16T17:06:29.369Z,58.84
2023-04-16T17:08:55.895Z,58.80
2023-04-16T17:11:22.605Z,58.86
2023-04-16T17:13:49.676Z,58.86
2023-04-16T17:16:17.735Z,58.84
2023-04-16T17:18:44.335Z,58.74
2023-04-16T17:21:11.201Z,58.77
2023-04-16T17:23:39.984Z,58.78
2023-04-16T17:26:07.751Z,58.85
2023-04-16T17:28:34.541Z,58.78
2023-04-16T17:31:02.671Z,58.84
2023-04-16T17:33:29.342Z,58.84
2023-04-16T17:35:55.930Z,58.85
2023-04-16T17:38:22.654Z,58.80
2023-04-16T17:40:49.356Z,58.88
2023-04-16T17:43:16.270Z,58.82
2023-04-16T17:45:42.860Z,58.80
2023-04-16T17:48:09.545Z,58.81
2023-04-16T17:50:38.252Z,58.78
2023-04-16T17:53:06.169Z,58.94
2023-04-16T17:55:32.790Z,58.85
2023-04-16T17:58:00.729Z,58.85
2023-04-16T18:00:27.421Z,58.85
2023-04-16T18:02:56.682Z,58.90
2023-04-16T18:05:23.674Z,58.83
2023-04-16T18:07:51.622Z,58.96
2023-04-16T18:10:18.312Z,58.93
2023-04-16T18:12:45.038Z,58.90
2023-04-16T18:15:11.920Z,58.96
2023-04-16T18:17:41.511Z,58.87
2023-04-16T18:20:09.047Z,58.98
2023-04-16T18:22:35.790Z,58.92
2023-04-16T18:25:02.528Z,58.93
2023-04-16T18:27:29.089Z,58.98
2023-04-16T18:29:55.797Z,58.89
2023-04-16T18:32:22.465Z,58.97
2023-04-16T18:34:49.150Z,58.99
2023-04-16T18:37:16.174Z,58.93
2023-04-16T18:39:42.782Z,58.94
2023-04-16T18:42:09.414Z,58.96
2023-04-16T18:44:36.108Z,58.95
2023-04-16T18:47:02.920Z,59.00
2023-04-16T18:49:29.701Z,58.97
2023-04-16T18:51:56.461Z,58.90
2023-04-16T18:54:23.216Z,59.07
2023-04-16T18:56:49.774Z,59.00
2023-04-16T18:59:16.230Z,59.04
2023-04-16T19:01:42.882Z,58.93
2023-04-16T19:04:09.656Z,58.99
2023-04-16T19:06:36.408Z,59.03
2023-04-16T19:09:03.177Z,59.01
2023-04-16T19:11:29.667Z,59.01
2023-04-16T19:13:57.514Z,59.11
2023-04-16T19:16:24.206Z,58.84
2023-04-16T19:18:50.987Z,59.14
2023-04-16T19:21:17.573Z,59.08
2023-04-16T19:23:44.205Z,59.15
2023-04-16T19:26:10.684Z,59.19
2023-04-16T19:28:38.719Z,58.98
2023-04-16T19:31:05.452Z,59.15
2023-04-16T19:33:32.243Z,59.15
2023-04-16T19:35:59.018Z,59.14
2023-04-16T19:38:25.798Z,59.22
2023-04-16T19:40:52.517Z,58.85
2023-04-16T19:43:19.058Z,58.86
2023-04-16T19:45:47.007Z,58.63
2023-04-16T19:48:13.812Z,58.55
2023-04-16T19:50:41.313Z,58.74
2023-04-16T19:53:08.517Z,58.92
2023-04-16T19:55:35.207Z,59.05
2023-04-16T19:58:06.247Z,58.94
2023-04-16T20:00:36.511Z,58.86
2023-04-16T20:03:03.750Z,59.05
2023-04-16T20:05:30.462Z,59.19
2023-04-16T20:07:57.146Z,59.06
2023-04-16T20:10:24.076Z,59.09
2023-04-16T20:12:51.010Z,59.08
2023-04-16T20:15:17.925Z,59.02
2023-04-16T20:17:44.655Z,59.08
2023-04-16T20:20:11.538Z,58.93
2023-04-16T20:22:38.674Z,58.96
2023-04-16T20:25:05.767Z,59.06
2023-04-16T20:27:32.720Z,59.04
2023-04-16T20:29:59.910Z,59.15
2023-04-16T20:32:27.847Z,59.18
2023-04-16T20:34:55.319Z,59.28
2023-04-16T20:37:22.208Z,59.30
2023-04-16T20:39:50.224Z,59.32
2023-04-16T20:42:17.053Z,59.20
2023-04-16T20:44:50.630Z,59.31
2023-04-16T20:47:17.392Z,58.96
2023-04-16T20:49:46.631Z,59.34
2023-04-16T20:52:13.789Z,59.41
2023-04-16T20:54:40.463Z,59.30
2023-04-16T20:57:07.278Z,59.40
2023-04-16T20:59:33.940Z,59.36
2023-04-16T21:02:00.866Z,59.40
2023-04-16T21:04:27.582Z,59.42
2023-04-16T21:06:54.288Z,59.50
2023-04-16T21:09:20.897Z,59.63
2023-04-16T21:11:48.153Z,59.50
2023-04-16T21:14:14.768Z,59.53
2023-04-16T21:16:41.394Z,59.66
2023-04-16T21:19:08.945Z,59.48
2023-04-16T21:21:35.745Z,59.48
2023-04-16T21:24:02.357Z,59.54
2023-04-16T21:26:29.028Z,59.46
2023-04-16T21:28:55.551Z,59.54
2023-04-16T21:31:22.116Z,59.50
2023-04-16T21:33:48.828Z,59.58
2023-04-16T21:36:15.628Z,59.58
2023-04-16T21:38:42.271Z,59.48
2023-04-16T21:41:08.843Z,59.43
2023-04-16T21:43:35.509Z,59.43
2023-04-16T21:46:02.195Z,59.55
2023-04-16T21:48:28.946Z,59.51
2023-04-16T21:50:59.868Z,59.43
2023-04-16T21:53:28.166Z,59.55
2023-04-16T21:55:54.849Z,59.70
2023-04-16T21:58:21.580Z,59.62
2023-04-16T22:00:48.368Z,59.69
2023-04-16T22:03:17.378Z,59.58
2023-04-16T22:05:44.910Z,59.56
2023-04-16T22:10:43.879Z,59.51
2023-04-16T22:13:12.713Z,59.51
2023-04-16T22:15:39.859Z,59.40
2023-04-16T22:18:10.822Z,59.56
2023-04-16T22:20:39.198Z,59.58
2023-04-16T22:23:06.415Z,59.59
2023-04-16T22:25:33.367Z,59.58
2023-04-16T22:28:01.388Z,59.46
2023-04-16T22:30:27.996Z,59.48
2023-04-16T22:32:54.882Z,59.52
2023-04-16T22:35:21.543Z,59.61
2023-04-16T22:37:48.170Z,59.50
2023-04-16T22:40:14.967Z,59.58
2023-04-16T22:42:41.568Z,59.64
2023-04-16T22:45:08.921Z,59.75
2023-04-16T22:47:35.499Z,59.61
2023-04-16T22:50:03.379Z,59.80
2023-04-16T22:52:30.097Z,59.74
2023-04-16T22:54:56.674Z,59.78
2023-04-16T22:57:25.652Z,59.76
2023-04-16T22:59:53.072Z,59.66
2023-04-16T23:02:20.170Z,59.74
2023-04-16T23:04:48.052Z,59.91
2023-04-16T23:07:15.533Z,59.79
2023-04-16T23:09:42.355Z,60.00
2023-04-16T23:12:09.128Z,60.05
2023-04-16T23:14:37.003Z,60.05
2023-04-16T23:17:03.747Z,59.91
2023-04-16T23:19:31.233Z,59.81
2023-04-16T23:21:57.961Z,59.93
2023-04-16T23:24:24.593Z,59.86
2023-04-16T23:26:52.477Z,59.97
2023-04-16T23:29:19.656Z,59.92
2023-04-16T23:31:46.335Z,60.01
2023-04-16T23:34:12.961Z,59.95
2023-04-16T23:36:40.753Z,59.92
2023-04-16T23:39:07.497Z,60.01
2023-04-16T23:41:34.455Z,60.07
2023-04-16T23:44:01.099Z,60.00
2023-04-16T23:46:27.600Z,60.02
2023-04-16T23:48:55.496Z,59.85
2023-04-16T23:51:24.863Z,59.88
2023-04-16T23:53:51.364Z,60.00
2023-04-16T23:56:18.405Z,59.98
2023-04-16T23:58:45.162Z,59.99
